createdAt,value
2024-03-30T00:00:24.440Z,60.37
2024-03-30T00:03:13.974Z,61.07
2024-03-30T00:05:42.068Z,61.64
2024-03-30T00:08:12.706Z,61.65
2024-03-30T00:10:45.210Z,62.16
2024-03-30T00:13:13.635Z,64.57
2024-03-30T00:15:42.738Z,66.03
2024-03-30T00:18:13.648Z,63.15
2024-03-30T00:20:42.685Z,58.88
2024-03-30T00:23:10.519Z,57.07
2024-03-30T00:25:39.047Z,57.51
2024-03-30T00:28:09.030Z,58.61
2024-03-30T00:30:38.971Z,59.15
2024-03-30T00:33:06.682Z,60.01
2024-03-30T00:35:35.170Z,60.63
2024-03-30T00:38:04.406Z,61.00
2024-03-30T00:40:32.172Z,61.34
2024-03-30T00:43:05.425Z,64.45
2024-03-30T00:45:40.088Z,66.12
2024-03-30T00:48:08.161Z,63.20
2024-03-30T00:50:36.559Z,60.03
2024-03-30T00:53:04.688Z,56.34
2024-03-30T00:55:32.853Z,55.37
2024-03-30T00:58:00.545Z,56.28
2024-03-30T01:00:29.250Z,57.10
2024-03-30T01:02:57.300Z,58.33
2024-03-30T01:05:25.162Z,59.47
2024-03-30T01:07:52.926Z,60.24
2024-03-30T01:10:22.938Z,60.92
2024-03-30T01:12:53.060Z,61.85
2024-03-30T01:15:21.725Z,64.74
2024-03-30T01:17:50.159Z,65.75
2024-03-30T01:20:20.422Z,62.84
2024-03-30T01:22:51.063Z,60.79
2024-03-30T01:25:19.241Z,57.86
2024-03-30T01:27:48.824Z,56.43
2024-03-30T01:30:17.177Z,57.83
2024-03-30T01:32:48.289Z,58.52
2024-03-30T01:35:16.421Z,59.73
2024-03-30T01:37:44.443Z,60.28
2024-03-30T01:40:15.535Z,61.29
2024-03-30T01:42:43.226Z,62.77
2024-03-30T01:45:20.091Z,65.46
2024-03-30T01:47:47.898Z,63.95
2024-03-30T01:50:21.440Z,60.58
2024-03-30T01:52:54.089Z,58.06
2024-03-30T01:55:22.419Z,58.22
2024-03-30T01:57:51.904Z,59.22
2024-03-30T02:00:20.307Z,60.38
2024-03-30T02:02:51.714Z,61.48
2024-03-30T02:05:22.612Z,64.26
2024-03-30T02:07:50.302Z,65.30
2024-03-30T02:10:18.408Z,62.13
2024-03-30T02:12:47.546Z,58.10
2024-03-30T02:15:16.009Z,56.99
2024-03-30T02:17:45.270Z,57.61
2024-03-30T02:20:13.748Z,59.40
2024-03-30T02:22:51.184Z,60.53
2024-03-30T02:25:23.335Z,60.95
2024-03-30T02:27:53.722Z,61.47
2024-03-30T02:30:40.205Z,64.75
2024-03-30T02:33:07.891Z,65.84
2024-03-30T02:35:36.014Z,62.25
2024-03-30T02:38:06.502Z,59.01
2024-03-30T02:40:34.767Z,57.14
2024-03-30T02:43:02.550Z,58.53
2024-03-30T02:45:30.323Z,59.33
2024-03-30T02:47:58.362Z,60.68
2024-03-30T02:50:26.063Z,61.65
2024-03-30T02:52:53.843Z,64.87
2024-03-30T02:55:21.675Z,65.54
2024-03-30T02:57:50.623Z,61.54
2024-03-30T03:00:23.617Z,57.82
2024-03-30T03:02:54.346Z,56.32
2024-03-30T03:05:25.105Z,57.16
2024-03-30T03:07:52.839Z,58.27
2024-03-30T03:10:21.036Z,59.11
2024-03-30T03:12:50.302Z,59.75
2024-03-30T03:15:20.907Z,60.68
2024-03-30T03:17:52.223Z,61.31
2024-03-30T03:20:20.100Z,64.86
2024-03-30T03:22:51.289Z,65.03
2024-03-30T03:25:19.942Z,61.97
2024-03-30T03:27:51.671Z,60.11
2024-03-30T03:30:22.332Z,57.20
2024-03-30T03:32:50.097Z,56.84
2024-03-30T03:35:20.966Z,57.67
2024-03-30T03:37:51.638Z,58.46
2024-03-30T03:40:19.889Z,60.14
2024-03-30T03:42:56.615Z,60.97
2024-03-30T03:45:25.867Z,64.40
2024-03-30T03:47:58.694Z,65.45
2024-03-30T03:50:26.387Z,61.91
2024-03-30T03:52:56.457Z,59.98
2024-03-30T03:55:26.165Z,57.36
2024-03-30T03:57:54.381Z,57.22
2024-03-30T04:00:34.825Z,58.09
2024-03-30T04:03:02.765Z,59.02
2024-03-30T04:05:53.292Z,59.74
2024-03-30T04:08:26.636Z,60.42
2024-03-30T04:11:01.524Z,61.44
2024-03-30T04:13:38.369Z,64.33
2024-03-30T04:16:13.596Z,65.32
2024-03-30T04:18:47.605Z,62.46
2024-03-30T04:21:17.024Z,60.23
2024-03-30T04:23:51.041Z,57.56
2024-03-30T04:26:23.757Z,57.09
2024-03-30T04:28:51.588Z,57.57
2024-03-30T04:31:19.346Z,58.87
2024-03-30T04:33:48.284Z,60.15
2024-03-30T04:36:16.050Z,60.92
2024-03-30T04:38:43.822Z,61.97
2024-03-30T04:41:14.484Z,64.23
2024-03-30T04:43:42.215Z,65.18
2024-03-30T04:46:09.912Z,64.39
2024-03-30T04:48:40.657Z,61.69
2024-03-30T04:51:10.093Z,59.76
2024-03-30T04:53:37.796Z,57.27
2024-03-30T04:56:09.769Z,56.62
2024-03-30T04:58:38.677Z,57.46
2024-03-30T05:01:08.379Z,58.25
2024-03-30T05:03:37.085Z,59.38
2024-03-30T05:06:06.153Z,60.20
2024-03-30T05:08:34.445Z,60.57
2024-03-30T05:11:02.496Z,61.33
2024-03-30T05:13:32.580Z,64.26
2024-03-30T05:16:00.551Z,65.68
2024-03-30T05:18:28.995Z,62.60
2024-03-30T05:21:00.877Z,59.92
2024-03-30T05:23:33.828Z,56.92
2024-03-30T05:26:06.657Z,56.64
2024-03-30T05:28:37.104Z,57.65
2024-03-30T05:31:21.662Z,58.45
2024-03-30T05:33:49.463Z,59.31
2024-03-30T05:36:17.872Z,60.05
2024-03-30T05:38:48.204Z,60.48
2024-03-30T05:41:16.602Z,61.26
2024-03-30T05:43:45.442Z,61.72
2024-03-30T05:46:23.632Z,64.36
2024-03-30T05:48:54.094Z,65.31
2024-03-30T05:51:22.566Z,61.52
2024-03-30T05:53:50.319Z,57.23
2024-03-30T05:56:21.012Z,55.61
2024-03-30T05:58:51.450Z,56.59
2024-03-30T06:01:20.837Z,57.65
2024-03-30T06:03:55.159Z,58.45
2024-03-30T06:06:25.394Z,58.72
2024-03-30T06:08:53.377Z,59.14
2024-03-30T06:11:25.645Z,59.63
2024-03-30T06:13:54.018Z,60.07
2024-03-30T06:16:22.290Z,60.56
2024-03-30T06:18:50.080Z,60.71
2024-03-30T06:21:21.257Z,60.79
2024-03-30T06:23:55.503Z,60.90
2024-03-30T06:26:25.441Z,60.97
2024-03-30T06:28:56.399Z,61.08
2024-03-30T06:31:28.112Z,60.78
2024-03-30T06:33:59.088Z,60.92
2024-03-30T06:37:00.003Z,60.90
2024-03-30T06:39:57.471Z,60.93
2024-03-30T06:42:45.792Z,61.04
2024-03-30T06:45:19.179Z,61.38
2024-03-30T06:47:57.298Z,61.06
2024-03-30T06:50:26.100Z,60.62
2024-03-30T06:53:02.960Z,60.84
2024-03-30T06:55:30.645Z,60.01
2024-03-30T06:57:58.495Z,59.91
2024-03-30T07:00:30.991Z,59.67
2024-03-30T07:03:03.183Z,59.27
2024-03-30T07:05:35.490Z,59.13
2024-03-30T07:08:03.494Z,58.33
2024-03-30T07:10:37.424Z,58.20
2024-03-30T07:13:08.565Z,58.67
2024-03-30T07:15:36.706Z,58.51
2024-03-30T07:18:07.385Z,57.65
2024-03-30T07:20:35.529Z,57.18
2024-03-30T07:23:03.461Z,57.26
2024-03-30T07:25:31.492Z,57.15
2024-03-30T07:27:59.227Z,57.37
2024-03-30T07:30:27.525Z,56.74
2024-03-30T07:32:57.279Z,56.10
2024-03-30T07:35:25.634Z,55.62
2024-03-30T07:37:56.700Z,55.41
2024-03-30T07:40:25.076Z,55.44
2024-03-30T07:42:53.311Z,55.62
2024-03-30T07:45:21.313Z,55.47
2024-03-30T07:47:49.361Z,55.02
2024-03-30T07:50:17.683Z,54.64
2024-03-30T07:52:50.945Z,54.41
2024-03-30T07:55:18.932Z,54.19
2024-03-30T07:57:46.912Z,54.24
2024-03-30T08:00:16.086Z,54.60
2024-03-30T08:02:44.063Z,54.55
2024-03-30T08:05:11.939Z,54.48
2024-03-30T08:07:39.645Z,54.97
2024-03-30T08:10:07.879Z,54.41
2024-03-30T08:12:35.760Z,54.00
2024-03-30T08:15:03.871Z,53.79
2024-03-30T08:17:31.924Z,53.65
2024-03-30T08:19:59.954Z,52.71
2024-03-30T08:22:27.862Z,52.16
2024-03-30T08:24:55.919Z,52.16
2024-03-30T08:27:25.688Z,52.30
2024-03-30T08:29:57.950Z,52.30
2024-03-30T08:32:30.221Z,52.20
2024-03-30T08:34:58.227Z,51.48
2024-03-30T08:37:26.367Z,50.99
2024-03-30T08:39:55.165Z,51.34
2024-03-30T08:42:24.124Z,50.92
2024-03-30T08:44:54.848Z,50.93
2024-03-30T08:47:22.673Z,50.80
2024-03-30T08:49:50.605Z,50.19
2024-03-30T08:52:18.529Z,49.84
2024-03-30T08:54:46.464Z,49.30
2024-03-30T08:57:14.667Z,48.93
2024-03-30T08:59:42.470Z,48.08
2024-03-30T09:02:10.220Z,46.49
2024-03-30T09:04:40.970Z,46.00
2024-03-30T09:07:08.663Z,45.36
2024-03-30T09:09:38.475Z,44.58
2024-03-30T09:12:06.710Z,44.82
2024-03-30T09:14:36.156Z,44.54
2024-03-30T09:17:07.460Z,44.85
2024-03-30T09:19:35.200Z,44.05
2024-03-30T09:22:06.303Z,44.02
2024-03-30T09:24:34.504Z,43.66
2024-03-30T09:27:04.502Z,43.30
2024-03-30T09:29:32.620Z,42.75
2024-03-30T09:32:01.491Z,42.34
2024-03-30T09:34:38.576Z,41.81
2024-03-30T09:37:13.883Z,42.20
2024-03-30T09:39:44.767Z,41.14
2024-03-30T09:42:34.411Z,40.76
2024-03-30T09:45:06.052Z,40.81
2024-03-30T09:47:40.868Z,40.32
2024-03-30T09:50:12.261Z,40.45
2024-03-30T09:52:43.659Z,39.73
2024-03-30T09:55:19.072Z,39.52
2024-03-30T09:57:51.146Z,39.02
2024-03-30T10:00:19.803Z,38.40
2024-03-30T10:02:49.257Z,37.72
2024-03-30T10:05:32.468Z,37.42
2024-03-30T10:08:08.319Z,37.18
2024-03-30T10:10:36.373Z,36.92
2024-03-30T10:13:13.498Z,36.74
2024-03-30T10:15:51.926Z,36.42
2024-03-30T10:18:20.419Z,35.98
2024-03-30T10:20:51.346Z,35.76
2024-03-30T10:23:23.255Z,35.67
2024-03-30T10:25:57.207Z,35.10
2024-03-30T10:28:25.128Z,34.10
2024-03-30T10:30:53.071Z,33.93
2024-03-30T10:33:22.582Z,34.28
2024-03-30T10:35:50.809Z,33.76
2024-03-30T10:38:18.600Z,33.16
2024-03-30T10:40:46.522Z,33.05
2024-03-30T10:43:14.292Z,33.41
2024-03-30T10:45:42.176Z,32.62
2024-03-30T10:48:09.993Z,33.03
2024-03-30T10:50:38.710Z,32.83
2024-03-30T10:53:07.273Z,32.53
2024-03-30T10:55:38.684Z,31.70
2024-03-30T10:58:06.691Z,31.77
2024-03-30T11:00:34.949Z,31.30
2024-03-30T11:03:04.864Z,30.32
2024-03-30T11:05:35.908Z,30.61
2024-03-30T11:08:04.209Z,30.70
2024-03-30T11:10:32.170Z,29.80
2024-03-30T11:13:02.177Z,29.70
2024-03-30T11:15:38.405Z,29.14
2024-03-30T11:18:13.731Z,28.76
2024-03-30T11:20:45.099Z,29.25
2024-03-30T11:23:23.938Z,29.18
2024-03-30T11:25:58.889Z,29.13
2024-03-30T11:28:37.833Z,29.59
2024-03-30T11:31:08.960Z,28.97
2024-03-30T11:33:41.007Z,28.65
2024-03-30T11:36:15.317Z,28.78
2024-03-30T11:38:58.336Z,28.70
2024-03-30T11:41:26.347Z,28.88
2024-03-30T11:44:14.823Z,28.67
2024-03-30T11:46:46.500Z,29.28
2024-03-30T11:49:16.806Z,29.82
2024-03-30T11:51:44.813Z,29.90
2024-03-30T11:54:23.133Z,30.02
2024-03-30T11:57:23.318Z,30.07
2024-03-30T11:59:57.246Z,30.13
2024-03-30T12:02:29.569Z,30.67
2024-03-30T12:05:08.393Z,30.53
2024-03-30T12:07:37.119Z,30.97
2024-03-30T12:10:09.113Z,31.17
2024-03-30T12:12:38.627Z,31.27
2024-03-30T12:15:15.079Z,31.25
2024-03-30T12:17:49.017Z,31.06
2024-03-30T12:20:16.938Z,30.94
2024-03-30T12:22:45.333Z,30.54
2024-03-30T12:25:13.956Z,30.40
2024-03-30T12:27:44.672Z,30.25
2024-03-30T12:30:12.987Z,29.79
2024-03-30T12:32:42.878Z,29.11
2024-03-30T12:35:11.492Z,28.80
2024-03-30T12:37:42.192Z,28.61
2024-03-30T12:40:12.725Z,27.94
2024-03-30T12:42:50.030Z,27.82
2024-03-30T12:45:20.402Z,27.31
2024-03-30T12:47:50.350Z,26.96
2024-03-30T12:50:18.551Z,26.27
2024-03-30T12:52:50.848Z,26.31
2024-03-30T12:55:18.898Z,26.60
2024-03-30T12:57:50.968Z,25.86
2024-03-30T13:00:19.455Z,25.58
2024-03-30T13:03:01.313Z,25.03
2024-03-30T13:05:32.252Z,25.81
2024-03-30T13:08:05.148Z,25.42
2024-03-30T13:10:35.874Z,24.33
2024-03-30T13:13:06.782Z,24.31
2024-03-30T13:15:35.695Z,24.05
2024-03-30T13:18:11.068Z,23.88
2024-03-30T13:20:42.237Z,24.09
2024-03-30T13:23:12.172Z,24.30
2024-03-30T13:25:45.909Z,24.26
2024-03-30T13:28:16.367Z,24.12
2024-03-30T13:30:47.399Z,24.50
2024-03-30T13:33:15.445Z,25.11
2024-03-30T13:35:46.703Z,25.13
2024-03-30T13:38:15.374Z,24.80
2024-03-30T13:40:47.700Z,25.21
2024-03-30T13:43:24.274Z,24.83
2024-03-30T13:45:59.837Z,24.19
2024-03-30T13:48:29.075Z,23.56
2024-03-30T13:51:00.994Z,23.57
2024-03-30T13:53:33.194Z,23.71
2024-03-30T13:56:13.363Z,23.53
2024-03-30T13:58:44.587Z,23.51
2024-03-30T14:01:13.918Z,23.00
2024-03-30T14:03:41.649Z,23.25
2024-03-30T14:06:13.119Z,23.21
2024-03-30T14:08:41.207Z,23.35
2024-03-30T14:11:13.737Z,23.14
2024-03-30T14:13:46.859Z,23.19
2024-03-30T14:16:22.772Z,23.69
2024-03-30T14:19:04.123Z,23.94
2024-03-30T14:21:46.419Z,23.87
2024-03-30T14:24:17.734Z,24.64
2024-03-30T14:27:00.867Z,24.77
2024-03-30T14:29:40.084Z,24.91
2024-03-30T14:32:09.607Z,25.16
2024-03-30T14:34:37.929Z,25.43
2024-03-30T14:37:09.820Z,25.92
2024-03-30T14:39:38.244Z,26.06
2024-03-30T14:42:06.332Z,26.21
2024-03-30T14:44:36.611Z,26.58
2024-03-30T14:47:04.447Z,26.98
2024-03-30T14:49:32.420Z,27.47
2024-03-30T14:52:03.448Z,27.79
2024-03-30T14:54:31.408Z,28.27
2024-03-30T14:56:59.568Z,28.78
2024-03-30T14:59:27.394Z,29.13
2024-03-30T15:01:55.435Z,29.28
2024-03-30T15:04:23.258Z,29.16
2024-03-30T15:06:51.059Z,29.04
2024-03-30T15:09:21.686Z,29.13
2024-03-30T15:11:52.855Z,29.36
2024-03-30T15:14:21.931Z,29.43
2024-03-30T15:16:49.886Z,29.97
2024-03-30T15:19:17.630Z,29.40
2024-03-30T15:21:48.311Z,29.13
2024-03-30T15:24:16.309Z,29.19
2024-03-30T15:26:44.098Z,29.15
2024-03-30T15:29:14.443Z,28.89
2024-03-30T15:32:01.070Z,29.23
2024-03-30T15:34:28.952Z,29.66
2024-03-30T15:36:57.241Z,29.66
2024-03-30T15:39:26.912Z,30.01
2024-03-30T15:41:55.709Z,30.25
2024-03-30T15:44:26.787Z,30.41
2024-03-30T15:46:54.510Z,30.69
2024-03-30T15:49:22.370Z,31.05
2024-03-30T15:51:51.124Z,31.13
2024-03-30T15:54:19.382Z,31.50
2024-03-30T15:56:47.947Z,31.35
2024-03-30T15:59:15.685Z,31.16
2024-03-30T16:01:45.418Z,30.40
2024-03-30T16:04:13.175Z,29.39
2024-03-30T16:06:42.811Z,27.79
2024-03-30T16:09:13.220Z,26.37
2024-03-30T16:11:42.136Z,26.32
2024-03-30T16:14:13.119Z,26.54
2024-03-30T16:17:21.294Z,26.45
2024-03-30T16:19:49.058Z,26.97
2024-03-30T16:22:16.850Z,26.75
2024-03-30T16:24:44.611Z,26.98
2024-03-30T16:27:12.414Z,26.32
2024-03-30T16:29:41.592Z,26.22
2024-03-30T16:32:09.341Z,25.63
2024-03-30T16:34:37.799Z,24.92
2024-03-30T16:37:05.667Z,24.99
2024-03-30T16:39:33.369Z,24.82
2024-03-30T16:42:01.247Z,24.94
2024-03-30T16:44:29.874Z,25.43
2024-03-30T16:46:57.880Z,25.56
2024-03-30T16:49:25.774Z,26.14
2024-03-30T16:51:56.577Z,26.60
2024-03-30T16:54:24.527Z,27.05
2024-03-30T16:56:52.214Z,27.53
2024-03-30T16:59:19.916Z,27.95
2024-03-30T17:01:47.977Z,28.43
2024-03-30T17:04:18.677Z,28.83
2024-03-30T17:06:46.454Z,29.27
2024-03-30T17:09:14.516Z,29.59
2024-03-30T17:11:43.447Z,30.15
2024-03-30T17:14:15.940Z,30.76
2024-03-30T17:16:44.080Z,31.02
2024-03-30T17:19:12.782Z,31.45
2024-03-30T17:21:40.562Z,31.71
2024-03-30T17:24:08.673Z,32.18
2024-03-30T17:26:39.618Z,32.41
2024-03-30T17:29:09.068Z,32.76
2024-03-30T17:31:37.382Z,33.03
2024-03-30T17:34:05.256Z,33.61
2024-03-30T17:36:33.247Z,33.83
2024-03-30T17:39:01.074Z,34.06
2024-03-30T17:41:30.400Z,34.42
2024-03-30T17:43:58.909Z,34.73
2024-03-30T17:46:27.870Z,34.98
2024-03-30T17:48:56.160Z,35.17
2024-03-30T17:51:25.357Z,35.54
2024-03-30T17:53:53.904Z,35.78
2024-03-30T17:56:22.092Z,36.03
2024-03-30T17:58:50.688Z,36.12
2024-03-30T18:01:21.921Z,36.52
2024-03-30T18:03:54.198Z,36.79
2024-03-30T18:06:30.000Z,36.98
2024-03-30T18:08:58.528Z,37.14
2024-03-30T18:11:29.796Z,37.19
2024-03-30T18:13:59.467Z,36.87
2024-03-30T18:16:27.216Z,37.62
2024-03-30T18:18:55.046Z,38.08
2024-03-30T18:21:23.135Z,38.14
2024-03-30T18:23:53.985Z,38.29
2024-03-30T18:26:22.456Z,38.55
2024-03-30T18:28:50.350Z,38.86
2024-03-30T18:31:20.685Z,39.03
2024-03-30T18:33:51.100Z,39.10
2024-03-30T18:36:21.196Z,39.34
2024-03-30T18:38:49.466Z,39.75
2024-03-30T18:41:18.274Z,40.06
2024-03-30T18:43:46.134Z,40.28
2024-03-30T18:46:16.574Z,40.37
2024-03-30T18:48:45.070Z,41.05
2024-03-30T18:51:14.880Z,41.26
2024-03-30T18:53:43.058Z,41.43
2024-03-30T18:56:10.931Z,41.99
2024-03-30T18:58:45.656Z,41.77
2024-03-30T19:01:15.572Z,42.08
2024-03-30T19:03:44.045Z,42.45
2024-03-30T19:06:11.967Z,43.05
2024-03-30T19:08:40.174Z,42.73
2024-03-30T19:11:08.270Z,42.74
2024-03-30T19:13:36.100Z,43.17
2024-03-30T19:16:04.431Z,42.76
2024-03-30T19:18:33.130Z,43.14
2024-03-30T19:21:04.210Z,43.39
2024-03-30T19:23:32.748Z,43.46
2024-03-30T19:26:03.840Z,43.60
2024-03-30T19:28:32.210Z,43.53
2024-03-30T19:30:59.964Z,43.92
2024-03-30T19:33:27.720Z,44.17
2024-03-30T19:36:04.041Z,45.23
2024-03-30T19:38:34.595Z,45.22
2024-03-30T19:41:14.492Z,45.14
2024-03-30T19:43:44.831Z,45.30
2024-03-30T19:46:13.172Z,45.29
2024-03-30T19:48:41.147Z,45.29
2024-03-30T19:51:09.319Z,45.18
2024-03-30T19:53:37.189Z,45.02
2024-03-30T19:56:08.371Z,45.52
2024-03-30T19:58:36.120Z,45.32
2024-03-30T20:01:07.066Z,45.40
2024-03-30T20:03:38.326Z,45.75
2024-03-30T20:06:07.180Z,45.66
2024-03-30T20:08:36.278Z,46.31
2024-03-30T20:11:04.766Z,46.01
2024-03-30T20:13:32.498Z,46.01
2024-03-30T20:16:03.134Z,46.50
2024-03-30T20:18:30.749Z,46.52
2024-03-30T20:20:58.944Z,46.67
2024-03-30T20:23:27.518Z,47.24
2024-03-30T20:26:02.928Z,47.02
2024-03-30T20:28:30.824Z,47.14
2024-03-30T20:31:00.252Z,47.50
2024-03-30T20:33:32.313Z,47.29
2024-03-30T20:36:01.813Z,47.61
2024-03-30T20:38:30.649Z,47.44
2024-03-30T20:41:09.191Z,47.52
2024-03-30T20:43:41.078Z,48.03
2024-03-30T20:46:13.042Z,48.01
2024-03-30T20:48:45.644Z,48.33
2024-03-30T20:51:13.848Z,48.13
2024-03-30T20:53:42.490Z,48.21
2024-03-30T20:56:10.277Z,48.27
2024-03-30T20:58:46.412Z,48.39
2024-03-30T21:01:14.305Z,48.35
2024-03-30T21:03:42.130Z,48.42
2024-03-30T21:06:11.087Z,48.49
2024-03-30T21:08:38.949Z,48.83
2024-03-30T21:11:06.776Z,48.67
2024-03-30T21:13:34.621Z,48.78
2024-03-30T21:16:02.884Z,49.07
2024-03-30T21:18:31.143Z,49.19
2024-03-30T21:21:00.781Z,49.17
2024-03-30T21:23:28.890Z,49.38
2024-03-30T21:26:05.301Z,49.41
2024-03-30T21:28:35.427Z,49.37
2024-03-30T21:31:03.721Z,49.87
2024-03-30T21:33:33.529Z,49.63
2024-03-30T21:36:01.404Z,49.59
2024-03-30T21:38:29.267Z,49.70
2024-03-30T21:40:57.062Z,49.65
2024-03-30T21:43:25.110Z,49.60
2024-03-30T21:45:54.243Z,49.59
2024-03-30T21:48:21.993Z,49.40
2024-03-30T21:50:57.199Z,49.31
2024-03-30T21:53:25.849Z,49.48
2024-03-30T21:55:55.814Z,49.46
2024-03-30T21:58:23.659Z,49.38
2024-03-30T22:00:55.426Z,49.31
2024-03-30T22:03:23.327Z,49.23
2024-03-30T22:05:58.998Z,49.11
2024-03-30T22:08:26.847Z,49.38
2024-03-30T22:10:58.002Z,49.22
2024-03-30T22:13:28.417Z,49.14
2024-03-30T22:16:06.398Z,49.09
2024-03-30T22:18:40.652Z,49.21
2024-03-30T22:21:08.362Z,49.22
2024-03-30T22:23:36.105Z,49.34
2024-03-30T22:26:06.131Z,49.24
2024-03-30T22:28:53.873Z,49.34
2024-03-30T22:31:21.627Z,49.44
2024-03-30T22:33:52.814Z,49.61
2024-03-30T22:36:23.859Z,49.80
2024-03-30T22:38:52.199Z,49.83
2024-03-30T22:41:19.930Z,49.96
2024-03-30T22:43:48.440Z,50.10
2024-03-30T22:46:16.123Z,50.45
2024-03-30T22:48:45.145Z,50.25
2024-03-30T22:51:15.587Z,50.31
2024-03-30T22:53:43.288Z,50.33
2024-03-30T22:56:11.486Z,50.30
2024-03-30T22:58:42.361Z,50.34
2024-03-30T23:01:11.072Z,50.37
2024-03-30T23:03:38.821Z,50.29
2024-03-30T23:06:07.014Z,50.23
2024-03-30T23:08:35.440Z,50.43
2024-03-30T23:11:05.257Z,50.32
2024-03-30T23:13:34.492Z,51.18
2024-03-30T23:16:09.357Z,51.18
2024-03-30T23:18:38.679Z,50.68
2024-03-30T23:21:06.659Z,50.72
2024-03-30T23:23:34.873Z,50.65
2024-03-30T23:26:02.689Z,50.80
2024-03-30T23:28:30.862Z,50.69
2024-03-30T23:30:58.656Z,50.72
2024-03-30T23:33:26.458Z,50.61
2024-03-30T23:35:57.815Z,50.60
2024-03-30T23:38:28.651Z,50.57
2024-03-30T23:40:57.515Z,50.42
2024-03-30T23:43:30.682Z,50.39
2024-03-30T23:45:58.405Z,50.35
2024-03-30T23:48:26.520Z,50.39
2024-03-30T23:50:55.340Z,50.31
2024-03-30T23:53:23.201Z,50.11
2024-03-30T23:55:51.122Z,50.05
2024-03-30T23:58:18.877Z,50.06
